sensor_id;sensor_type;location;lat;lon;timestamp;P1;durP1;ratioP1;P2;durP2;ratioP2
44985;SDS011;30721;49.380;7.736;2022-08-21T00:00:22;3.63;;;1.98;;
44985;SDS011;30721;49.380;7.736;2022-08-21T00:02:51;4.22;;;2.10;;
44985;SDS011;30721;49.380;7.736;2022-08-21T00:05:19;3.67;;;1.85;;
44985;SDS011;30721;49.380;7.736;2022-08-21T00:07:45;2.95;;;1.90;;
44985;SDS011;30721;49.380;7.736;2022-08-21T00:10:11;2.38;;;1.98;;
44985;SDS011;30721;49.380;7.736;2022-08-21T00:12:37;2.95;;;1.90;;
44985;SDS011;30721;49.380;7.736;2022-08-21T00:15:04;4.40;;;2.25;;
44985;SDS011;30721;49.380;7.736;2022-08-21T00:17:30;4.65;;;2.30;;
44985;SDS011;30721;49.380;7.736;2022-08-21T00:19:56;2.90;;;2.20;;
44985;SDS011;30721;49.380;7.736;2022-08-21T00:22:21;2.60;;;1.92;;
44985;SDS011;30721;49.380;7.736;2022-08-21T00:24:46;3.20;;;1.90;;
44985;SDS011;30721;49.380;7.736;2022-08-21T00:27:12;5.30;;;2.40;;
44985;SDS011;30721;49.380;7.736;2022-08-21T00:29:37;4.53;;;2.40;;
44985;SDS011;30721;49.380;7.736;2022-08-21T00:32:02;4.03;;;1.75;;
44985;SDS011;30721;49.380;7.736;2022-08-21T00:34:28;4.03;;;2.45;;
44985;SDS011;30721;49.380;7.736;2022-08-21T00:36:53;4.85;;;2.00;;
44985;SDS011;30721;49.380;7.736;2022-08-21T00:39:19;2.97;;;2.10;;
44985;SDS011;30721;49.380;7.736;2022-08-21T00:41:44;3.10;;;2.03;;
44985;SDS011;30721;49.380;7.736;2022-08-21T00:44:11;3.45;;;2.25;;
44985;SDS011;30721;49.380;7.736;2022-08-21T00:46:38;4.00;;;2.00;;
44985;SDS011;30721;49.380;7.736;2022-08-21T00:49:05;3.28;;;1.63;;
44985;SDS011;30721;49.380;7.736;2022-08-21T00:51:37;3.80;;;1.95;;
44985;SDS011;30721;49.380;7.736;2022-08-21T00:54:05;3.30;;;2.03;;
44985;SDS011;30721;49.380;7.736;2022-08-21T00:56:31;3.67;;;2.10;;
44985;SDS011;30721;49.380;7.736;2022-08-21T00:58:56;2.70;;;1.67;;
44985;SDS011;30721;49.380;7.736;2022-08-21T01:01:23;3.65;;;2.15;;
44985;SDS011;30721;49.380;7.736;2022-08-21T01:03:48;3.80;;;2.28;;
44985;SDS011;30721;49.380;7.736;2022-08-21T01:06:14;3.33;;;1.83;;
44985;SDS011;30721;49.380;7.736;2022-08-21T01:08:39;3.67;;;2.72;;
44985;SDS011;30721;49.380;7.736;2022-08-21T01:11:05;2.33;;;1.70;;
44985;SDS011;30721;49.380;7.736;2022-08-21T01:13:32;4.70;;;2.08;;
44985;SDS011;30721;49.380;7.736;2022-08-21T01:16:00;3.65;;;2.00;;
44985;SDS011;30721;49.380;7.736;2022-08-21T01:18:28;3.55;;;2.08;;
44985;SDS011;30721;49.380;7.736;2022-08-21T01:21:36;4.25;;;2.25;;
44985;SDS011;30721;49.380;7.736;2022-08-21T01:23:45;3.90;;;2.10;;
44985;SDS011;30721;49.380;7.736;2022-08-21T01:26:13;4.22;;;2.50;;
44985;SDS011;30721;49.380;7.736;2022-08-21T01:31:28;3.08;;;1.90;;
44985;SDS011;30721;49.380;7.736;2022-08-21T01:33:54;5.80;;;2.40;;
44985;SDS011;30721;49.380;7.736;2022-08-21T01:36:21;4.50;;;2.60;;
44985;SDS011;30721;49.380;7.736;2022-08-21T01:38:47;6.75;;;2.63;;
44985;SDS011;30721;49.380;7.736;2022-08-21T01:41:13;4.13;;;2.45;;
44985;SDS011;30721;49.380;7.736;2022-08-21T01:43:39;3.90;;;2.20;;
44985;SDS011;30721;49.380;7.736;2022-08-21T01:46:06;4.43;;;2.28;;
44985;SDS011;30721;49.380;7.736;2022-08-21T01:48:31;3.13;;;2.30;;
44985;SDS011;30721;49.380;7.736;2022-08-21T01:50:57;3.20;;;2.30;;
44985;SDS011;30721;49.380;7.736;2022-08-21T01:53:22;3.03;;;1.98;;
44985;SDS011;30721;49.380;7.736;2022-08-21T01:55:48;4.50;;;2.05;;
44985;SDS011;30721;49.380;7.736;2022-08-21T01:58:13;4.45;;;2.35;;
44985;SDS011;30721;49.380;7.736;2022-08-21T02:00:39;3.42;;;2.10;;
44985;SDS011;30721;49.380;7.736;2022-08-21T02:03:04;4.30;;;2.15;;
44985;SDS011;30721;49.380;7.736;2022-08-21T02:05:30;3.53;;;2.00;;
44985;SDS011;30721;49.380;7.736;2022-08-21T02:07:56;3.85;;;1.90;;
44985;SDS011;30721;49.380;7.736;2022-08-21T02:10:23;6.15;;;2.78;;
44985;SDS011;30721;49.380;7.736;2022-08-21T02:12:51;4.35;;;2.10;;
44985;SDS011;30721;49.380;7.736;2022-08-21T02:15:17;2.60;;;2.00;;
44985;SDS011;30721;49.380;7.736;2022-08-21T02:17:48;2.70;;;2.30;;
44985;SDS011;30721;49.380;7.736;2022-08-21T02:20:18;2.33;;;1.83;;
44985;SDS011;30721;49.380;7.736;2022-08-21T02:22:46;3.38;;;2.08;;
44985;SDS011;30721;49.380;7.736;2022-08-21T02:25:11;4.25;;;2.00;;
44985;SDS011;30721;49.380;7.736;2022-08-21T02:27:41;3.88;;;2.00;;
44985;SDS011;30721;49.380;7.736;2022-08-21T02:30:11;3.97;;;2.00;;
44985;SDS011;30721;49.380;7.736;2022-08-21T02:32:38;3.42;;;1.95;;
44985;SDS011;30721;49.380;7.736;2022-08-21T02:35:05;4.00;;;2.20;;
44985;SDS011;30721;49.380;7.736;2022-08-21T02:37:32;3.10;;;2.03;;
44985;SDS011;30721;49.380;7.736;2022-08-21T02:39:58;3.40;;;2.03;;
44985;SDS011;30721;49.380;7.736;2022-08-21T02:42:25;5.50;;;2.10;;
44985;SDS011;30721;49.380;7.736;2022-08-21T02:44:50;4.82;;;2.30;;
44985;SDS011;30721;49.380;7.736;2022-08-21T02:47:16;2.35;;;2.10;;
44985;SDS011;30721;49.380;7.736;2022-08-21T02:49:42;3.30;;;2.35;;
44985;SDS011;30721;49.380;7.736;2022-08-21T02:52:08;2.88;;;2.42;;
44985;SDS011;30721;49.380;7.736;2022-08-21T02:54:35;4.43;;;2.35;;
44985;SDS011;30721;49.380;7.736;2022-08-21T02:57:00;4.72;;;2.80;;
44985;SDS011;30721;49.380;7.736;2022-08-21T02:59:26;4.15;;;2.35;;
44985;SDS011;30721;49.380;7.736;2022-08-21T03:01:51;5.60;;;2.88;;
44985;SDS011;30721;49.380;7.736;2022-08-21T03:04:17;4.53;;;2.30;;
44985;SDS011;30721;49.380;7.736;2022-08-21T03:06:43;3.17;;;2.28;;
44985;SDS011;30721;49.380;7.736;2022-08-21T03:09:08;5.07;;;2.50;;
44985;SDS011;30721;49.380;7.736;2022-08-21T03:11:34;5.57;;;3.25;;
44985;SDS011;30721;49.380;7.736;2022-08-21T03:14:00;4.50;;;2.60;;
44985;SDS011;30721;49.380;7.736;2022-08-21T03:16:26;3.20;;;2.40;;
44985;SDS011;30721;49.380;7.736;2022-08-21T03:18:51;3.45;;;3.08;;
44985;SDS011;30721;49.380;7.736;2022-08-21T03:21:17;3.72;;;2.25;;
44985;SDS011;30721;49.380;7.736;2022-08-21T03:23:43;5.07;;;2.25;;
44985;SDS011;30721;49.380;7.736;2022-08-21T03:26:09;4.38;;;1.98;;
44985;SDS011;30721;49.380;7.736;2022-08-21T03:28:35;3.67;;;2.25;;
44985;SDS011;30721;49.380;7.736;2022-08-21T03:31:01;4.47;;;2.20;;
44985;SDS011;30721;49.380;7.736;2022-08-21T03:33:27;5.47;;;2.30;;
44985;SDS011;30721;49.380;7.736;2022-08-21T03:36:26;5.50;;;2.88;;
44985;SDS011;30721;49.380;7.736;2022-08-21T03:38:45;4.47;;;2.67;;
44985;SDS011;30721;49.380;7.736;2022-08-21T03:41:10;4.70;;;2.60;;
44985;SDS011;30721;49.380;7.736;2022-08-21T03:43:35;3.42;;;2.90;;
44985;SDS011;30721;49.380;7.736;2022-08-21T03:46:02;5.07;;;2.95;;
44985;SDS011;30721;49.380;7.736;2022-08-21T03:48:28;3.80;;;2.70;;
44985;SDS011;30721;49.380;7.736;2022-08-21T03:50:54;5.80;;;2.67;;
44985;SDS011;30721;49.380;7.736;2022-08-21T03:53:20;5.43;;;2.70;;
44985;SDS011;30721;49.380;7.736;2022-08-21T03:55:46;5.15;;;2.80;;
44985;SDS011;30721;49.380;7.736;2022-08-21T03:58:13;9.43;;;3.22;;
44985;SDS011;30721;49.380;7.736;2022-08-21T04:00:39;6.10;;;3.67;;
44985;SDS011;30721;49.380;7.736;2022-08-21T04:03:05;4.22;;;2.92;;
44985;SDS011;30721;49.380;7.736;2022-08-21T04:05:31;4.93;;;2.80;;
44985;SDS011;30721;49.380;7.736;2022-08-21T04:07:58;5.28;;;2.90;;
44985;SDS011;30721;49.380;7.736;2022-08-21T04:10:26;5.88;;;2.95;;
44985;SDS011;30721;49.380;7.736;2022-08-21T04:12:52;5.53;;;2.75;;
44985;SDS011;30721;49.380;7.736;2022-08-21T04:15:18;3.95;;;2.88;;
44985;SDS011;30721;49.380;7.736;2022-08-21T04:17:43;3.70;;;2.72;;
44985;SDS011;30721;49.380;7.736;2022-08-21T04:20:09;4.55;;;3.00;;
44985;SDS011;30721;49.380;7.736;2022-08-21T04:22:34;3.60;;;2.42;;
44985;SDS011;30721;49.380;7.736;2022-08-21T04:25:00;6.85;;;2.83;;
44985;SDS011;30721;49.380;7.736;2022-08-21T04:27:25;3.65;;;2.85;;
44985;SDS011;30721;49.380;7.736;2022-08-21T04:29:51;4.13;;;2.70;;
44985;SDS011;30721;49.380;7.736;2022-08-21T04:32:23;4.28;;;2.85;;
44985;SDS011;30721;49.380;7.736;2022-08-21T04:34:49;7.05;;;3.20;;
44985;SDS011;30721;49.380;7.736;2022-08-21T04:37:14;4.82;;;3.42;;
44985;SDS011;30721;49.380;7.736;2022-08-21T04:39:40;4.68;;;2.97;;
44985;SDS011;30721;49.380;7.736;2022-08-21T04:42:06;5.53;;;3.38;;
44985;SDS011;30721;49.380;7.736;2022-08-21T04:44:32;4.78;;;3.55;;
44985;SDS011;30721;49.380;7.736;2022-08-21T04:46:57;5.50;;;3.15;;
44985;SDS011;30721;49.380;7.736;2022-08-21T04:49:23;5.43;;;3.38;;
44985;SDS011;30721;49.380;7.736;2022-08-21T04:51:48;4.63;;;3.20;;
44985;SDS011;30721;49.380;7.736;2022-08-21T04:54:17;7.43;;;3.88;;
44985;SDS011;30721;49.380;7.736;2022-08-21T04:56:45;7.43;;;3.40;;
44985;SDS011;30721;49.380;7.736;2022-08-21T04:59:17;5.60;;;3.30;;
44985;SDS011;30721;49.380;7.736;2022-08-21T05:01:45;5.15;;;3.13;;
44985;SDS011;30721;49.380;7.736;2022-08-21T05:04:13;5.20;;;3.28;;
44985;SDS011;30721;49.380;7.736;2022-08-21T05:06:40;6.05;;;3.67;;
44985;SDS011;30721;49.380;7.736;2022-08-21T05:09:07;4.57;;;2.88;;
44985;SDS011;30721;49.380;7.736;2022-08-21T05:11:34;7.18;;;3.25;;
44985;SDS011;30721;49.380;7.736;2022-08-21T05:14:00;6.72;;;3.25;;
44985;SDS011;30721;49.380;7.736;2022-08-21T05:16:25;5.60;;;3.53;;
44985;SDS011;30721;49.380;7.736;2022-08-21T05:18:51;5.43;;;3.38;;
44985;SDS011;30721;49.380;7.736;2022-08-21T05:21:17;3.50;;;2.85;;
44985;SDS011;30721;49.380;7.736;2022-08-21T05:23:42;11.45;;;3.20;;
44985;SDS011;30721;49.380;7.736;2022-08-21T05:26:07;7.25;;;3.53;;
44985;SDS011;30721;49.380;7.736;2022-08-21T05:28:33;4.57;;;3.05;;
44985;SDS011;30721;49.380;7.736;2022-08-21T05:30:59;5.70;;;3.20;;
44985;SDS011;30721;49.380;7.736;2022-08-21T05:33:24;6.07;;;2.85;;
44985;SDS011;30721;49.380;7.736;2022-08-21T05:35:50;6.32;;;3.10;;
44985;SDS011;30721;49.380;7.736;2022-08-21T05:38:17;5.10;;;3.33;;
44985;SDS011;30721;49.380;7.736;2022-08-21T05:40:42;4.63;;;2.75;;
44985;SDS011;30721;49.380;7.736;2022-08-21T05:43:08;4.07;;;2.75;;
44985;SDS011;30721;49.380;7.736;2022-08-21T05:45:34;4.28;;;3.15;;
44985;SDS011;30721;49.380;7.736;2022-08-21T05:48:06;4.25;;;2.95;;
44985;SDS011;30721;49.380;7.736;2022-08-21T05:50:33;5.38;;;2.75;;
44985;SDS011;30721;49.380;7.736;2022-08-21T05:52:58;3.92;;;2.45;;
44985;SDS011;30721;49.380;7.736;2022-08-21T05:55:23;4.63;;;3.22;;
44985;SDS011;30721;49.380;7.736;2022-08-21T05:57:49;4.63;;;2.65;;
44985;SDS011;30721;49.380;7.736;2022-08-21T06:00:14;5.60;;;2.65;;
44985;SDS011;30721;49.380;7.736;2022-08-21T06:02:41;5.10;;;2.65;;
44985;SDS011;30721;49.380;7.736;2022-08-21T06:05:07;5.75;;;2.88;;
44985;SDS011;30721;49.380;7.736;2022-08-21T06:07:32;6.03;;;3.33;;
44985;SDS011;30721;49.380;7.736;2022-08-21T06:09:58;3.53;;;2.58;;
44985;SDS011;30721;49.380;7.736;2022-08-21T06:12:24;4.85;;;2.50;;
44985;SDS011;30721;49.380;7.736;2022-08-21T06:14:50;4.88;;;3.10;;
44985;SDS011;30721;49.380;7.736;2022-08-21T06:17:17;4.05;;;2.40;;
44985;SDS011;30721;49.380;7.736;2022-08-21T06:19:42;3.95;;;2.83;;
44985;SDS011;30721;49.380;7.736;2022-08-21T06:22:08;5.25;;;3.03;;
44985;SDS011;30721;49.380;7.736;2022-08-21T06:24:33;4.97;;;2.78;;
44985;SDS011;30721;49.380;7.736;2022-08-21T06:27:03;5.28;;;2.80;;
44985;SDS011;30721;49.380;7.736;2022-08-21T06:29:30;4.57;;;3.08;;
44985;SDS011;30721;49.380;7.736;2022-08-21T06:31:55;5.55;;;2.90;;
44985;SDS011;30721;49.380;7.736;2022-08-21T06:34:21;5.05;;;2.72;;
44985;SDS011;30721;49.380;7.736;2022-08-21T06:36:46;3.92;;;2.88;;
44985;SDS011;30721;49.380;7.736;2022-08-21T06:39:12;4.90;;;2.80;;
44985;SDS011;30721;49.380;7.736;2022-08-21T06:41:38;5.05;;;2.65;;
44985;SDS011;30721;49.380;7.736;2022-08-21T06:44:04;4.28;;;2.63;;
44985;SDS011;30721;49.380;7.736;2022-08-21T06:46:29;4.18;;;2.90;;
44985;SDS011;30721;49.380;7.736;2022-08-21T06:48:55;5.47;;;2.83;;
44985;SDS011;30721;49.380;7.736;2022-08-21T06:51:21;4.00;;;3.10;;
44985;SDS011;30721;49.380;7.736;2022-08-21T06:53:47;4.85;;;2.83;;
44985;SDS011;30721;49.380;7.736;2022-08-21T06:56:13;7.40;;;2.83;;
44985;SDS011;30721;49.380;7.736;2022-08-21T06:58:39;5.50;;;2.58;;
44985;SDS011;30721;49.380;7.736;2022-08-21T07:01:04;3.72;;;2.00;;
44985;SDS011;30721;49.380;7.736;2022-08-21T07:03:34;6.07;;;2.33;;
44985;SDS011;30721;49.380;7.736;2022-08-21T07:06:01;7.25;;;2.22;;
44985;SDS011;30721;49.380;7.736;2022-08-21T07:08:27;4.70;;;2.35;;
44985;SDS011;30721;49.380;7.736;2022-08-21T07:10:53;5.82;;;2.70;;
44985;SDS011;30721;49.380;7.736;2022-08-21T07:13:20;5.03;;;2.22;;
44985;SDS011;30721;49.380;7.736;2022-08-21T07:15:45;4.07;;;2.28;;
44985;SDS011;30721;49.380;7.736;2022-08-21T07:18:11;4.10;;;2.75;;
44985;SDS011;30721;49.380;7.736;2022-08-21T07:20:38;4.85;;;2.40;;
44985;SDS011;30721;49.380;7.736;2022-08-21T07:23:05;5.28;;;2.50;;
44985;SDS011;30721;49.380;7.736;2022-08-21T07:25:32;5.38;;;2.13;;
44985;SDS011;30721;49.380;7.736;2022-08-21T07:27:58;5.57;;;2.17;;
44985;SDS011;30721;49.380;7.736;2022-08-21T07:30:23;7.97;;;2.70;;
44985;SDS011;30721;49.380;7.736;2022-08-21T07:32:49;4.93;;;2.40;;
44985;SDS011;30721;49.380;7.736;2022-08-21T07:35:15;4.05;;;2.40;;
44985;SDS011;30721;49.380;7.736;2022-08-21T07:37:41;5.80;;;2.47;;
44985;SDS011;30721;49.380;7.736;2022-08-21T07:40:07;5.68;;;2.40;;
44985;SDS011;30721;49.380;7.736;2022-08-21T07:42:33;6.45;;;2.28;;
44985;SDS011;30721;49.380;7.736;2022-08-21T07:44:58;11.70;;;3.88;;
44985;SDS011;30721;49.380;7.736;2022-08-21T07:47:23;5.95;;;2.50;;
44985;SDS011;30721;49.380;7.736;2022-08-21T07:49:49;5.78;;;2.28;;
44985;SDS011;30721;49.380;7.736;2022-08-21T07:52:14;4.40;;;2.20;;
44985;SDS011;30721;49.380;7.736;2022-08-21T07:54:39;5.25;;;1.98;;
44985;SDS011;30721;49.380;7.736;2022-08-21T07:57:05;5.60;;;2.05;;
44985;SDS011;30721;49.380;7.736;2022-08-21T07:59:30;6.90;;;2.53;;
44985;SDS011;30721;49.380;7.736;2022-08-21T08:01:55;6.70;;;2.58;;
44985;SDS011;30721;49.380;7.736;2022-08-21T08:04:21;6.28;;;2.42;;
44985;SDS011;30721;49.380;7.736;2022-08-21T08:06:47;4.60;;;2.60;;
44985;SDS011;30721;49.380;7.736;2022-08-21T08:09:12;4.95;;;2.15;;
44985;SDS011;30721;49.380;7.736;2022-08-21T08:11:37;4.80;;;1.92;;
44985;SDS011;30721;49.380;7.736;2022-08-21T08:14:04;5.28;;;2.13;;
44985;SDS011;30721;49.380;7.736;2022-08-21T08:16:29;4.22;;;2.50;;
44985;SDS011;30721;49.380;7.736;2022-08-21T08:18:54;6.03;;;2.00;;
44985;SDS011;30721;49.380;7.736;2022-08-21T08:21:20;4.68;;;2.40;;
44985;SDS011;30721;49.380;7.736;2022-08-21T08:23:47;4.65;;;2.17;;
44985;SDS011;30721;49.380;7.736;2022-08-21T08:26:12;4.53;;;2.38;;
44985;SDS011;30721;49.380;7.736;2022-08-21T08:28:38;4.68;;;2.58;;
44985;SDS011;30721;49.380;7.736;2022-08-21T08:31:03;5.85;;;2.17;;
44985;SDS011;30721;49.380;7.736;2022-08-21T08:33:29;4.55;;;3.47;;
44985;SDS011;30721;49.380;7.736;2022-08-21T08:35:55;4.75;;;2.03;;
44985;SDS011;30721;49.380;7.736;2022-08-21T08:38:20;7.43;;;2.90;;
44985;SDS011;30721;49.380;7.736;2022-08-21T08:41:10;4.80;;;2.40;;
44985;SDS011;30721;49.380;7.736;2022-08-21T08:43:38;4.32;;;2.22;;
44985;SDS011;30721;49.380;7.736;2022-08-21T08:46:06;5.97;;;2.90;;
44985;SDS011;30721;49.380;7.736;2022-08-21T08:48:39;5.18;;;2.80;;
44985;SDS011;30721;49.380;7.736;2022-08-21T08:51:14;5.53;;;2.70;;
44985;SDS011;30721;49.380;7.736;2022-08-21T08:53:52;4.90;;;2.97;;
44985;SDS011;30721;49.380;7.736;2022-08-21T08:56:22;4.50;;;2.97;;
44985;SDS011;30721;49.380;7.736;2022-08-21T08:58:53;7.03;;;2.58;;
44985;SDS011;30721;49.380;7.736;2022-08-21T09:01:22;5.50;;;2.95;;
44985;SDS011;30721;49.380;7.736;2022-08-21T09:03:48;3.88;;;2.40;;
44985;SDS011;30721;49.380;7.736;2022-08-21T09:09:02;4.38;;;2.42;;
44985;SDS011;30721;49.380;7.736;2022-08-21T09:11:47;4.22;;;2.55;;
44985;SDS011;30721;49.380;7.736;2022-08-21T09:14:19;5.13;;;2.45;;
44985;SDS011;30721;49.380;7.736;2022-08-21T09:22:39;4.35;;;2.22;;
44985;SDS011;30721;49.380;7.736;2022-08-21T09:27:52;4.75;;;2.70;;
44985;SDS011;30721;49.380;7.736;2022-08-21T09:30:17;6.20;;;2.35;;
44985;SDS011;30721;49.380;7.736;2022-08-21T09:32:44;4.35;;;2.33;;
44985;SDS011;30721;49.380;7.736;2022-08-21T09:35:12;4.35;;;2.70;;
44985;SDS011;30721;49.380;7.736;2022-08-21T09:37:47;4.15;;;2.67;;
44985;SDS011;30721;49.380;7.736;2022-08-21T09:45:34;6.22;;;2.97;;
44985;SDS011;30721;49.380;7.736;2022-08-21T09:48:20;6.10;;;2.40;;
44985;SDS011;30721;49.380;7.736;2022-08-21T09:50:47;4.57;;;2.28;;
44985;SDS011;30721;49.380;7.736;2022-08-21T09:53:21;4.60;;;2.63;;
44985;SDS011;30721;49.380;7.736;2022-08-21T09:55:54;3.03;;;2.00;;
44985;SDS011;30721;49.380;7.736;2022-08-21T09:58:45;3.58;;;2.38;;
44985;SDS011;30721;49.380;7.736;2022-08-21T10:01:18;4.07;;;2.33;;
44985;SDS011;30721;49.380;7.736;2022-08-21T10:03:45;2.78;;;2.17;;
44985;SDS011;30721;49.380;7.736;2022-08-21T10:06:20;3.88;;;2.10;;
44985;SDS011;30721;49.380;7.736;2022-08-21T10:08:48;5.00;;;1.80;;
44985;SDS011;30721;49.380;7.736;2022-08-21T10:11:14;4.35;;;2.20;;
44985;SDS011;30721;49.380;7.736;2022-08-21T10:16:20;4.40;;;2.15;;
44985;SDS011;30721;49.380;7.736;2022-08-21T10:23:54;3.50;;;2.30;;
44985;SDS011;30721;49.380;7.736;2022-08-21T10:26:25;3.83;;;2.20;;
44985;SDS011;30721;49.380;7.736;2022-08-21T10:31:56;4.07;;;2.35;;
44985;SDS011;30721;49.380;7.736;2022-08-21T10:34:53;4.43;;;1.90;;
44985;SDS011;30721;49.380;7.736;2022-08-21T10:37:29;4.10;;;2.25;;
44985;SDS011;30721;49.380;7.736;2022-08-21T10:48:07;7.53;;;2.88;;
44985;SDS011;30721;49.380;7.736;2022-08-21T10:50:46;3.45;;;2.50;;
44985;SDS011;30721;49.380;7.736;2022-08-21T10:58:37;2.85;;;2.40;;
44985;SDS011;30721;49.380;7.736;2022-08-21T11:01:19;6.20;;;2.92;;
44985;SDS011;30721;49.380;7.736;2022-08-21T11:03:47;3.65;;;2.08;;
44985;SDS011;30721;49.380;7.736;2022-08-21T11:06:25;4.35;;;2.67;;
44985;SDS011;30721;49.380;7.736;2022-08-21T11:08:54;2.22;;;1.92;;
44985;SDS011;30721;49.380;7.736;2022-08-21T11:11:24;3.72;;;2.38;;
44985;SDS011;30721;49.380;7.736;2022-08-21T11:13:54;3.05;;;2.45;;
44985;SDS011;30721;49.380;7.736;2022-08-21T11:24:43;2.50;;;2.13;;
44985;SDS011;30721;49.380;7.736;2022-08-21T11:27:23;3.65;;;2.50;;
44985;SDS011;30721;49.380;7.736;2022-08-21T11:29:52;3.78;;;2.17;;
44985;SDS011;30721;49.380;7.736;2022-08-21T11:52:08;3.20;;;2.13;;
44985;SDS011;30721;49.380;7.736;2022-08-21T11:54:58;4.18;;;2.58;;
44985;SDS011;30721;49.380;7.736;2022-08-21T11:59:59;3.42;;;2.00;;
44985;SDS011;30721;49.380;7.736;2022-08-21T12:02:28;3.10;;;2.15;;
44985;SDS011;30721;49.380;7.736;2022-08-21T12:04:55;3.67;;;2.00;;
44985;SDS011;30721;49.380;7.736;2022-08-21T12:07:34;4.38;;;2.08;;
44985;SDS011;30721;49.380;7.736;2022-08-21T12:09:59;2.58;;;1.83;;
44985;SDS011;30721;49.380;7.736;2022-08-21T12:12:27;1.83;;;1.67;;
44985;SDS011;30721;49.380;7.736;2022-08-21T12:17:51;3.55;;;2.30;;
44985;SDS011;30721;49.380;7.736;2022-08-21T12:25:37;3.33;;;1.98;;
44985;SDS011;30721;49.380;7.736;2022-08-21T12:28:11;3.47;;;2.20;;
44985;SDS011;30721;49.380;7.736;2022-08-21T12:33:06;3.20;;;1.98;;
44985;SDS011;30721;49.380;7.736;2022-08-21T12:35:45;4.05;;;2.28;;
44985;SDS011;30721;49.380;7.736;2022-08-21T12:43:23;4.30;;;2.10;;
44985;SDS011;30721;49.380;7.736;2022-08-21T12:45:56;3.10;;;2.28;;
44985;SDS011;30721;49.380;7.736;2022-08-21T12:48:42;2.45;;;1.60;;
44985;SDS011;30721;49.380;7.736;2022-08-21T12:51:18;4.15;;;2.00;;
44985;SDS011;30721;49.380;7.736;2022-08-21T12:53:52;3.05;;;1.77;;
44985;SDS011;30721;49.380;7.736;2022-08-21T12:56:21;3.17;;;1.60;;
44985;SDS011;30721;49.380;7.736;2022-08-21T12:58:55;3.10;;;1.85;;
44985;SDS011;30721;49.380;7.736;2022-08-21T13:01:27;2.10;;;1.80;;
44985;SDS011;30721;49.380;7.736;2022-08-21T13:03:55;2.58;;;2.00;;
44985;SDS011;30721;49.380;7.736;2022-08-21T13:06:23;2.78;;;1.83;;
44985;SDS011;30721;49.380;7.736;2022-08-21T13:08:53;3.15;;;1.80;;
44985;SDS011;30721;49.380;7.736;2022-08-21T13:11:22;3.45;;;1.85;;
44985;SDS011;30721;49.380;7.736;2022-08-21T13:13:49;3.28;;;1.92;;
44985;SDS011;30721;49.380;7.736;2022-08-21T13:16:18;4.13;;;2.10;;
44985;SDS011;30721;49.380;7.736;2022-08-21T13:19:19;3.55;;;1.98;;
44985;SDS011;30721;49.380;7.736;2022-08-21T13:21:42;3.42;;;2.20;;
44985;SDS011;30721;49.380;7.736;2022-08-21T13:24:13;3.33;;;1.88;;
44985;SDS011;30721;49.380;7.736;2022-08-21T13:26:41;2.47;;;1.90;;
44985;SDS011;30721;49.380;7.736;2022-08-21T13:29:07;2.53;;;1.92;;
44985;SDS011;30721;49.380;7.736;2022-08-21T13:31:36;2.67;;;2.15;;
44985;SDS011;30721;49.380;7.736;2022-08-21T13:34:03;2.58;;;1.90;;
44985;SDS011;30721;49.380;7.736;2022-08-21T13:36:30;2.75;;;1.88;;
44985;SDS011;30721;49.380;7.736;2022-08-21T13:38:57;2.78;;;1.95;;
44985;SDS011;30721;49.380;7.736;2022-08-21T13:43:59;3.30;;;2.00;;
44985;SDS011;30721;49.380;7.736;2022-08-21T13:46:26;2.75;;;1.88;;
44985;SDS011;30721;49.380;7.736;2022-08-21T13:48:54;3.22;;;1.90;;
44985;SDS011;30721;49.380;7.736;2022-08-21T13:51:20;3.58;;;2.42;;
44985;SDS011;30721;49.380;7.736;2022-08-21T13:53:47;3.50;;;2.00;;
44985;SDS011;30721;49.380;7.736;2022-08-21T13:56:41;3.03;;;2.17;;
44985;SDS011;30721;49.380;7.736;2022-08-21T13:59:08;2.10;;;1.85;;
44985;SDS011;30721;49.380;7.736;2022-08-21T14:04:36;2.45;;;2.13;;
44985;SDS011;30721;49.380;7.736;2022-08-21T14:06:58;2.65;;;1.88;;
44985;SDS011;30721;49.380;7.736;2022-08-21T14:09:26;3.40;;;2.05;;
44985;SDS011;30721;49.380;7.736;2022-08-21T14:11:55;3.78;;;2.20;;
44985;SDS011;30721;49.380;7.736;2022-08-21T14:14:24;3.40;;;1.70;;
44985;SDS011;30721;49.380;7.736;2022-08-21T14:16:57;2.63;;;1.83;;
44985;SDS011;30721;49.380;7.736;2022-08-21T14:19:45;2.30;;;1.73;;
44985;SDS011;30721;49.380;7.736;2022-08-21T14:24:48;2.92;;;2.00;;
44985;SDS011;30721;49.380;7.736;2022-08-21T14:27:16;2.60;;;2.30;;
44985;SDS011;30721;49.380;7.736;2022-08-21T14:29:42;3.72;;;1.98;;
44985;SDS011;30721;49.380;7.736;2022-08-21T14:32:10;2.72;;;1.85;;
44985;SDS011;30721;49.380;7.736;2022-08-21T14:34:37;4.40;;;2.20;;
44985;SDS011;30721;49.380;7.736;2022-08-21T14:37:03;3.17;;;1.70;;
44985;SDS011;30721;49.380;7.736;2022-08-21T14:39:28;4.35;;;1.88;;
44985;SDS011;30721;49.380;7.736;2022-08-21T14:41:54;2.72;;;1.85;;
44985;SDS011;30721;49.380;7.736;2022-08-21T14:44:20;2.88;;;2.28;;
44985;SDS011;30721;49.380;7.736;2022-08-21T14:46:45;1.73;;;1.58;;
44985;SDS011;30721;49.380;7.736;2022-08-21T14:49:11;1.95;;;1.75;;
44985;SDS011;30721;49.380;7.736;2022-08-21T14:51:36;2.15;;;1.90;;
44985;SDS011;30721;49.380;7.736;2022-08-21T14:54:04;4.00;;;1.80;;
44985;SDS011;30721;49.380;7.736;2022-08-21T14:56:30;2.30;;;1.60;;
44985;SDS011;30721;49.380;7.736;2022-08-21T14:58:56;2.50;;;1.90;;
44985;SDS011;30721;49.380;7.736;2022-08-21T15:01:26;2.70;;;1.70;;
44985;SDS011;30721;49.380;7.736;2022-08-21T15:03:52;2.20;;;2.00;;
44985;SDS011;30721;49.380;7.736;2022-08-21T15:06:18;3.40;;;2.10;;
44985;SDS011;30721;49.380;7.736;2022-08-21T15:08:46;2.22;;;1.58;;
44985;SDS011;30721;49.380;7.736;2022-08-21T15:11:12;3.42;;;1.60;;
44985;SDS011;30721;49.380;7.736;2022-08-21T15:13:41;4.78;;;1.90;;
44985;SDS011;30721;49.380;7.736;2022-08-21T15:16:08;3.97;;;1.60;;
44985;SDS011;30721;49.380;7.736;2022-08-21T15:18:34;3.60;;;1.70;;
44985;SDS011;30721;49.380;7.736;2022-08-21T15:20:59;2.42;;;1.60;;
44985;SDS011;30721;49.380;7.736;2022-08-21T15:23:25;2.38;;;1.40;;
44985;SDS011;30721;49.380;7.736;2022-08-21T15:25:50;1.60;;;1.50;;
44985;SDS011;30721;49.380;7.736;2022-08-21T15:28:17;3.38;;;2.03;;
44985;SDS011;30721;49.380;7.736;2022-08-21T15:30:43;3.35;;;2.10;;
44985;SDS011;30721;49.380;7.736;2022-08-21T15:33:09;3.30;;;1.60;;
44985;SDS011;30721;49.380;7.736;2022-08-21T15:35:35;2.65;;;1.80;;
44985;SDS011;30721;49.380;7.736;2022-08-21T15:38:00;2.20;;;1.98;;
44985;SDS011;30721;49.380;7.736;2022-08-21T15:40:26;4.05;;;2.00;;
44985;SDS011;30721;49.380;7.736;2022-08-21T15:42:52;3.92;;;1.95;;
44985;SDS011;30721;49.380;7.736;2022-08-21T15:45:21;2.03;;;1.75;;
44985;SDS011;30721;49.380;7.736;2022-08-21T15:47:46;2.30;;;1.92;;
44985;SDS011;30721;49.380;7.736;2022-08-21T15:50:14;3.05;;;1.75;;
44985;SDS011;30721;49.380;7.736;2022-08-21T15:52:40;2.70;;;1.60;;
44985;SDS011;30721;49.380;7.736;2022-08-21T15:55:05;2.20;;;1.98;;
44985;SDS011;30721;49.380;7.736;2022-08-21T15:57:31;2.28;;;2.08;;
44985;SDS011;30721;49.380;7.736;2022-08-21T15:59:58;3.05;;;1.60;;
44985;SDS011;30721;49.380;7.736;2022-08-21T16:02:30;2.20;;;1.75;;
44985;SDS011;30721;49.380;7.736;2022-08-21T16:04:56;8.90;;;1.90;;
44985;SDS011;30721;49.380;7.736;2022-08-21T16:07:22;2.70;;;1.67;;
44985;SDS011;30721;49.380;7.736;2022-08-21T16:09:47;2.70;;;1.60;;
44985;SDS011;30721;49.380;7.736;2022-08-21T16:12:16;1.98;;;1.63;;
44985;SDS011;30721;49.380;7.736;2022-08-21T16:14:46;2.28;;;1.45;;
44985;SDS011;30721;49.380;7.736;2022-08-21T16:17:12;2.72;;;1.73;;
44985;SDS011;30721;49.380;7.736;2022-08-21T16:19:37;1.83;;;1.27;;
44985;SDS011;30721;49.380;7.736;2022-08-21T16:22:02;3.15;;;2.10;;
44985;SDS011;30721;49.380;7.736;2022-08-21T16:24:28;2.65;;;1.40;;
44985;SDS011;30721;49.380;7.736;2022-08-21T16:26:54;2.42;;;1.35;;
44985;SDS011;30721;49.380;7.736;2022-08-21T16:29:20;2.90;;;1.88;;